sensor_id;sensor_type;location;lat;lon;timestamp;P1;durP1;ratioP1;P2;durP2;ratioP2
48550;SDS011;34397;51.176;6.738;2023-11-18T00:01:41;44.25;;;22.08;;
48550;SDS011;34397;51.176;6.738;2023-11-18T00:04:13;57.90;;;22.17;;
48550;SDS011;34397;51.176;6.738;2023-11-18T00:06:46;40.08;;;19.92;;
48550;SDS011;34397;51.176;6.738;2023-11-18T00:09:18;41.10;;;20.67;;
48550;SDS011;34397;51.176;6.738;2023-11-18T00:11:50;39.13;;;20.50;;
48550;SDS011;34397;51.176;6.738;2023-11-18T00:14:23;38.92;;;19.90;;
48550;SDS011;34397;51.176;6.738;2023-11-18T00:16:55;40.05;;;20.25;;
48550;SDS011;34397;51.176;6.738;2023-11-18T00:19:29;42.10;;;20.42;;
48550;SDS011;34397;51.176;6.738;2023-11-18T00:22:01;38.70;;;19.70;;
48550;SDS011;34397;51.176;6.738;2023-11-18T00:24:33;39.20;;;19.63;;
48550;SDS011;34397;51.176;6.738;2023-11-18T00:27:05;36.47;;;19.17;;
48550;SDS011;34397;51.176;6.738;2023-11-18T00:29:38;44.83;;;21.67;;
48550;SDS011;34397;51.176;6.738;2023-11-18T00:32:10;40.10;;;18.30;;
48550;SDS011;34397;51.176;6.738;2023-11-18T00:34:42;45.63;;;21.10;;
48550;SDS011;34397;51.176;6.738;2023-11-18T00:37:14;47.35;;;20.95;;
48550;SDS011;34397;51.176;6.738;2023-11-18T00:42:19;43.53;;;19.08;;
48550;SDS011;34397;51.176;6.738;2023-11-18T00:44:52;41.20;;;19.08;;
48550;SDS011;34397;51.176;6.738;2023-11-18T00:47:25;47.25;;;19.85;;
48550;SDS011;34397;51.176;6.738;2023-11-18T00:49:57;41.67;;;19.15;;
48550;SDS011;34397;51.176;6.738;2023-11-18T00:52:31;37.38;;;18.23;;
48550;SDS011;34397;51.176;6.738;2023-11-18T00:55:04;38.90;;;18.20;;
48550;SDS011;34397;51.176;6.738;2023-11-18T00:57:37;35.60;;;18.35;;
48550;SDS011;34397;51.176;6.738;2023-11-18T01:02:46;34.70;;;17.58;;
48550;SDS011;34397;51.176;6.738;2023-11-18T01:07:50;33.88;;;16.83;;
48550;SDS011;34397;51.176;6.738;2023-11-18T01:10:22;33.08;;;17.88;;
48550;SDS011;34397;51.176;6.738;2023-11-18T01:12:54;32.00;;;16.50;;
48550;SDS011;34397;51.176;6.738;2023-11-18T01:15:29;31.02;;;17.33;;
48550;SDS011;34397;51.176;6.738;2023-11-18T01:18:02;32.40;;;17.33;;
48550;SDS011;34397;51.176;6.738;2023-11-18T01:20:36;33.28;;;17.48;;
48550;SDS011;34397;51.176;6.738;2023-11-18T01:23:08;33.38;;;18.08;;
48550;SDS011;34397;51.176;6.738;2023-11-18T01:25:40;33.20;;;17.33;;
48550;SDS011;34397;51.176;6.738;2023-11-18T01:28:12;33.33;;;17.48;;
48550;SDS011;34397;51.176;6.738;2023-11-18T01:30:46;34.95;;;18.20;;
48550;SDS011;34397;51.176;6.738;2023-11-18T01:33:19;29.38;;;16.45;;
48550;SDS011;34397;51.176;6.738;2023-11-18T01:35:51;33.85;;;16.85;;
48550;SDS011;34397;51.176;6.738;2023-11-18T01:40:56;32.15;;;15.90;;
48550;SDS011;34397;51.176;6.738;2023-11-18T01:43:28;30.05;;;17.10;;
48550;SDS011;34397;51.176;6.738;2023-11-18T01:46:04;31.10;;;16.85;;
48550;SDS011;34397;51.176;6.738;2023-11-18T01:48:40;33.03;;;17.48;;
48550;SDS011;34397;51.176;6.738;2023-11-18T01:51:13;33.65;;;18.35;;
48550;SDS011;34397;51.176;6.738;2023-11-18T01:53:46;33.33;;;17.58;;
48550;SDS011;34397;51.176;6.738;2023-11-18T01:56:20;33.60;;;16.92;;
48550;SDS011;34397;51.176;6.738;2023-11-18T01:58:55;33.72;;;17.95;;
48550;SDS011;34397;51.176;6.738;2023-11-18T02:01:30;33.65;;;17.48;;
48550;SDS011;34397;51.176;6.738;2023-11-18T02:04:02;35.85;;;18.45;;
48550;SDS011;34397;51.176;6.738;2023-11-18T02:06:37;36.50;;;18.45;;
48550;SDS011;34397;51.176;6.738;2023-11-18T02:09:09;38.53;;;18.70;;
48550;SDS011;34397;51.176;6.738;2023-11-18T02:11:43;38.85;;;18.30;;
48550;SDS011;34397;51.176;6.738;2023-11-18T02:14:24;33.13;;;18.45;;
48550;SDS011;34397;51.176;6.738;2023-11-18T02:17:02;42.60;;;20.63;;
48550;SDS011;34397;51.176;6.738;2023-11-18T02:19:35;35.83;;;18.38;;
48550;SDS011;34397;51.176;6.738;2023-11-18T02:22:10;36.92;;;18.55;;
48550;SDS011;34397;51.176;6.738;2023-11-18T02:27:15;37.85;;;19.17;;
48550;SDS011;34397;51.176;6.738;2023-11-18T02:29:50;35.63;;;17.90;;
48550;SDS011;34397;51.176;6.738;2023-11-18T02:32:23;41.15;;;19.48;;
48550;SDS011;34397;51.176;6.738;2023-11-18T02:35:02;37.85;;;18.52;;
48550;SDS011;34397;51.176;6.738;2023-11-18T02:37:43;38.88;;;17.88;;
48550;SDS011;34397;51.176;6.738;2023-11-18T02:40:19;35.22;;;16.85;;
48550;SDS011;34397;51.176;6.738;2023-11-18T02:43:04;37.53;;;17.98;;
48550;SDS011;34397;51.176;6.738;2023-11-18T02:45:37;36.42;;;17.92;;
48550;SDS011;34397;51.176;6.738;2023-11-18T02:48:09;39.17;;;19.00;;
48550;SDS011;34397;51.176;6.738;2023-11-18T02:50:41;31.70;;;16.15;;
48550;SDS011;34397;51.176;6.738;2023-11-18T02:53:13;33.80;;;18.35;;
48550;SDS011;34397;51.176;6.738;2023-11-18T02:55:45;35.08;;;17.15;;
48550;SDS011;34397;51.176;6.738;2023-11-18T02:58:19;37.40;;;18.17;;
48550;SDS011;34397;51.176;6.738;2023-11-18T03:00:51;33.67;;;16.55;;
48550;SDS011;34397;51.176;6.738;2023-11-18T03:03:23;35.75;;;17.45;;
48550;SDS011;34397;51.176;6.738;2023-11-18T03:05:55;34.95;;;16.73;;
48550;SDS011;34397;51.176;6.738;2023-11-18T03:08:30;32.25;;;17.38;;
48550;SDS011;34397;51.176;6.738;2023-11-18T03:11:02;36.35;;;17.30;;
48550;SDS011;34397;51.176;6.738;2023-11-18T03:13:36;30.15;;;15.93;;
48550;SDS011;34397;51.176;6.738;2023-11-18T03:16:09;29.98;;;15.18;;
48550;SDS011;34397;51.176;6.738;2023-11-18T03:18:42;31.35;;;16.23;;
48550;SDS011;34397;51.176;6.738;2023-11-18T03:23:47;29.33;;;15.57;;
48550;SDS011;34397;51.176;6.738;2023-11-18T03:26:19;30.92;;;14.60;;
48550;SDS011;34397;51.176;6.738;2023-11-18T03:28:52;32.50;;;15.77;;
48550;SDS011;34397;51.176;6.738;2023-11-18T03:31:24;32.88;;;16.55;;
48550;SDS011;34397;51.176;6.738;2023-11-18T03:33:56;32.83;;;17.38;;
48550;SDS011;34397;51.176;6.738;2023-11-18T03:36:27;33.63;;;16.50;;
48550;SDS011;34397;51.176;6.738;2023-11-18T03:38:59;30.90;;;15.80;;
48550;SDS011;34397;51.176;6.738;2023-11-18T03:41:33;29.48;;;16.25;;
48550;SDS011;34397;51.176;6.738;2023-11-18T03:44:06;28.80;;;15.52;;
48550;SDS011;34397;51.176;6.738;2023-11-18T03:46:38;32.20;;;16.70;;
48550;SDS011;34397;51.176;6.738;2023-11-18T03:49:11;29.48;;;15.65;;
48550;SDS011;34397;51.176;6.738;2023-11-18T03:51:43;31.30;;;15.77;;
48550;SDS011;34397;51.176;6.738;2023-11-18T03:54:14;30.65;;;15.60;;
48550;SDS011;34397;51.176;6.738;2023-11-18T03:56:46;29.00;;;15.43;;
48550;SDS011;34397;51.176;6.738;2023-11-18T03:59:19;33.15;;;15.27;;
48550;SDS011;34397;51.176;6.738;2023-11-18T04:01:51;29.40;;;15.48;;
48550;SDS011;34397;51.176;6.738;2023-11-18T04:04:23;29.58;;;15.48;;
48550;SDS011;34397;51.176;6.738;2023-11-18T04:06:55;31.77;;;16.10;;
48550;SDS011;34397;51.176;6.738;2023-11-18T04:09:27;31.95;;;15.88;;
48550;SDS011;34397;51.176;6.738;2023-11-18T04:11:59;30.15;;;15.35;;
48550;SDS011;34397;51.176;6.738;2023-11-18T04:14:33;30.90;;;15.68;;
48550;SDS011;34397;51.176;6.738;2023-11-18T04:17:04;30.13;;;15.75;;
48550;SDS011;34397;51.176;6.738;2023-11-18T04:19:36;28.73;;;15.00;;
48550;SDS011;34397;51.176;6.738;2023-11-18T04:22:09;30.40;;;15.40;;
48550;SDS011;34397;51.176;6.738;2023-11-18T04:24:40;31.77;;;16.35;;
48550;SDS011;34397;51.176;6.738;2023-11-18T04:27:15;34.47;;;16.67;;
48550;SDS011;34397;51.176;6.738;2023-11-18T04:29:48;32.17;;;16.23;;
48550;SDS011;34397;51.176;6.738;2023-11-18T04:32:21;27.90;;;14.77;;
48550;SDS011;34397;51.176;6.738;2023-11-18T04:34:52;35.17;;;15.80;;
48550;SDS011;34397;51.176;6.738;2023-11-18T04:37:25;33.38;;;16.90;;
48550;SDS011;34397;51.176;6.738;2023-11-18T04:39:57;35.88;;;17.77;;
48550;SDS011;34397;51.176;6.738;2023-11-18T04:42:29;34.25;;;17.40;;
48550;SDS011;34397;51.176;6.738;2023-11-18T04:45:02;37.67;;;17.95;;
48550;SDS011;34397;51.176;6.738;2023-11-18T04:47:35;35.65;;;16.63;;
48550;SDS011;34397;51.176;6.738;2023-11-18T04:50:09;33.85;;;17.05;;
48550;SDS011;34397;51.176;6.738;2023-11-18T04:52:42;34.92;;;17.52;;
48550;SDS011;34397;51.176;6.738;2023-11-18T04:55:13;35.17;;;17.77;;
48550;SDS011;34397;51.176;6.738;2023-11-18T04:57:45;37.30;;;16.92;;
48550;SDS011;34397;51.176;6.738;2023-11-18T05:00:19;33.20;;;17.95;;
48550;SDS011;34397;51.176;6.738;2023-11-18T05:02:51;37.35;;;17.65;;
48550;SDS011;34397;51.176;6.738;2023-11-18T05:05:23;33.92;;;17.27;;
48550;SDS011;34397;51.176;6.738;2023-11-18T05:07:55;37.55;;;18.08;;
48550;SDS011;34397;51.176;6.738;2023-11-18T05:10:27;35.13;;;17.90;;
48550;SDS011;34397;51.176;6.738;2023-11-18T05:12:58;32.83;;;16.25;;
48550;SDS011;34397;51.176;6.738;2023-11-18T05:15:32;29.38;;;15.07;;
48550;SDS011;34397;51.176;6.738;2023-11-18T05:18:04;30.63;;;15.93;;
48550;SDS011;34397;51.176;6.738;2023-11-18T05:20:38;33.03;;;16.50;;
48550;SDS011;34397;51.176;6.738;2023-11-18T05:23:10;33.13;;;16.58;;
48550;SDS011;34397;51.176;6.738;2023-11-18T05:25:42;35.75;;;16.85;;
48550;SDS011;34397;51.176;6.738;2023-11-18T05:28:15;32.72;;;17.30;;
48550;SDS011;34397;51.176;6.738;2023-11-18T05:33:20;33.00;;;16.35;;
48550;SDS011;34397;51.176;6.738;2023-11-18T05:35:52;32.88;;;16.35;;
48550;SDS011;34397;51.176;6.738;2023-11-18T05:38:24;31.55;;;17.50;;
48550;SDS011;34397;51.176;6.738;2023-11-18T05:40:57;28.70;;;15.43;;
48550;SDS011;34397;51.176;6.738;2023-11-18T05:43:32;28.17;;;15.88;;
48550;SDS011;34397;51.176;6.738;2023-11-18T05:46:11;34.80;;;16.20;;
48550;SDS011;34397;51.176;6.738;2023-11-18T05:48:50;29.83;;;16.00;;
48550;SDS011;34397;51.176;6.738;2023-11-18T05:51:24;29.08;;;15.13;;
48550;SDS011;34397;51.176;6.738;2023-11-18T05:53:59;29.65;;;15.85;;
48550;SDS011;34397;51.176;6.738;2023-11-18T05:56:31;30.52;;;16.75;;
48550;SDS011;34397;51.176;6.738;2023-11-18T05:59:03;27.45;;;14.98;;
48550;SDS011;34397;51.176;6.738;2023-11-18T06:01:36;28.98;;;14.75;;
48550;SDS011;34397;51.176;6.738;2023-11-18T06:04:08;28.05;;;15.48;;
48550;SDS011;34397;51.176;6.738;2023-11-18T06:06:40;26.67;;;14.55;;
48550;SDS011;34397;51.176;6.738;2023-11-18T06:11:50;30.40;;;15.55;;
48550;SDS011;34397;51.176;6.738;2023-11-18T06:14:23;34.28;;;14.98;;
48550;SDS011;34397;51.176;6.738;2023-11-18T06:16:58;27.48;;;15.25;;
48550;SDS011;34397;51.176;6.738;2023-11-18T06:19:30;28.55;;;15.43;;
48550;SDS011;34397;51.176;6.738;2023-11-18T06:22:02;30.25;;;14.95;;
48550;SDS011;34397;51.176;6.738;2023-11-18T06:24:35;28.90;;;15.40;;
48550;SDS011;34397;51.176;6.738;2023-11-18T06:27:09;27.45;;;14.60;;
48550;SDS011;34397;51.176;6.738;2023-11-18T06:29:41;27.42;;;14.80;;
48550;SDS011;34397;51.176;6.738;2023-11-18T06:32:14;25.48;;;14.18;;
48550;SDS011;34397;51.176;6.738;2023-11-18T06:34:46;26.17;;;14.75;;
48550;SDS011;34397;51.176;6.738;2023-11-18T06:37:19;27.98;;;13.98;;
48550;SDS011;34397;51.176;6.738;2023-11-18T06:39:51;27.00;;;15.18;;
48550;SDS011;34397;51.176;6.738;2023-11-18T06:42:23;32.15;;;14.70;;
48550;SDS011;34397;51.176;6.738;2023-11-18T06:44:54;27.77;;;14.25;;
48550;SDS011;34397;51.176;6.738;2023-11-18T06:47:29;25.63;;;14.65;;
48550;SDS011;34397;51.176;6.738;2023-11-18T06:50:03;25.73;;;14.55;;
48550;SDS011;34397;51.176;6.738;2023-11-18T06:52:36;24.30;;;13.70;;
48550;SDS011;34397;51.176;6.738;2023-11-18T06:57:41;24.88;;;14.63;;
48550;SDS011;34397;51.176;6.738;2023-11-18T07:00:14;23.10;;;12.63;;
48550;SDS011;34397;51.176;6.738;2023-11-18T07:02:48;24.67;;;13.88;;
48550;SDS011;34397;51.176;6.738;2023-11-18T07:05:20;24.00;;;13.60;;
48550;SDS011;34397;51.176;6.738;2023-11-18T07:07:54;24.27;;;14.00;;
48550;SDS011;34397;51.176;6.738;2023-11-18T07:10:25;25.55;;;13.80;;
48550;SDS011;34397;51.176;6.738;2023-11-18T07:12:57;23.45;;;13.48;;
48550;SDS011;34397;51.176;6.738;2023-11-18T07:15:29;23.63;;;13.15;;
48550;SDS011;34397;51.176;6.738;2023-11-18T07:18:02;20.05;;;12.18;;
48550;SDS011;34397;51.176;6.738;2023-11-18T07:23:05;21.98;;;13.07;;
48550;SDS011;34397;51.176;6.738;2023-11-18T07:25:38;25.08;;;12.43;;
48550;SDS011;34397;51.176;6.738;2023-11-18T07:28:10;21.75;;;12.30;;
48550;SDS011;34397;51.176;6.738;2023-11-18T07:30:45;21.70;;;12.30;;
48550;SDS011;34397;51.176;6.738;2023-11-18T07:33:19;19.05;;;11.50;;
48550;SDS011;34397;51.176;6.738;2023-11-18T07:35:51;20.88;;;12.00;;
48550;SDS011;34397;51.176;6.738;2023-11-18T07:38:24;20.55;;;11.50;;
48550;SDS011;34397;51.176;6.738;2023-11-18T07:40:57;19.80;;;11.20;;
48550;SDS011;34397;51.176;6.738;2023-11-18T07:43:29;19.10;;;11.60;;
48550;SDS011;34397;51.176;6.738;2023-11-18T07:46:01;19.70;;;11.93;;
48550;SDS011;34397;51.176;6.738;2023-11-18T07:48:34;20.00;;;11.93;;
48550;SDS011;34397;51.176;6.738;2023-11-18T07:51:06;19.63;;;11.02;;
48550;SDS011;34397;51.176;6.738;2023-11-18T07:53:38;24.92;;;12.23;;
48550;SDS011;34397;51.176;6.738;2023-11-18T07:56:10;19.55;;;11.10;;
48550;SDS011;34397;51.176;6.738;2023-11-18T08:01:17;19.08;;;11.07;;
48550;SDS011;34397;51.176;6.738;2023-11-18T08:03:52;20.85;;;11.35;;
48550;SDS011;34397;51.176;6.738;2023-11-18T08:06:24;18.80;;;10.75;;
48550;SDS011;34397;51.176;6.738;2023-11-18T08:08:56;17.58;;;10.63;;
48550;SDS011;34397;51.176;6.738;2023-11-18T08:11:28;19.40;;;10.93;;
48550;SDS011;34397;51.176;6.738;2023-11-18T08:14:00;19.30;;;10.15;;
48550;SDS011;34397;51.176;6.738;2023-11-18T08:16:32;19.00;;;10.98;;
48550;SDS011;34397;51.176;6.738;2023-11-18T08:19:06;17.75;;;10.80;;
48550;SDS011;34397;51.176;6.738;2023-11-18T08:21:38;17.73;;;9.85;;
48550;SDS011;34397;51.176;6.738;2023-11-18T08:24:09;18.35;;;10.70;;
48550;SDS011;34397;51.176;6.738;2023-11-18T08:26:42;18.48;;;10.98;;
48550;SDS011;34397;51.176;6.738;2023-11-18T08:29:14;17.05;;;10.63;;
48550;SDS011;34397;51.176;6.738;2023-11-18T08:31:46;18.90;;;10.35;;
48550;SDS011;34397;51.176;6.738;2023-11-18T08:34:19;17.50;;;9.70;;
48550;SDS011;34397;51.176;6.738;2023-11-18T08:36:51;17.17;;;10.88;;
48550;SDS011;34397;51.176;6.738;2023-11-18T08:39:23;17.05;;;10.00;;
48550;SDS011;34397;51.176;6.738;2023-11-18T08:41:56;16.63;;;9.90;;
48550;SDS011;34397;51.176;6.738;2023-11-18T08:44:28;15.82;;;8.80;;
48550;SDS011;34397;51.176;6.738;2023-11-18T08:47:02;16.05;;;9.45;;
48550;SDS011;34397;51.176;6.738;2023-11-18T08:49:39;14.38;;;9.02;;
48550;SDS011;34397;51.176;6.738;2023-11-18T08:52:16;15.30;;;9.45;;
48550;SDS011;34397;51.176;6.738;2023-11-18T08:54:48;14.85;;;9.50;;
48550;SDS011;34397;51.176;6.738;2023-11-18T08:57:37;13.65;;;8.77;;
48550;SDS011;34397;51.176;6.738;2023-11-18T09:00:22;15.25;;;8.55;;
48550;SDS011;34397;51.176;6.738;2023-11-18T09:03:12;15.25;;;8.80;;
48550;SDS011;34397;51.176;6.738;2023-11-18T09:08:29;15.27;;;8.65;;
48550;SDS011;34397;51.176;6.738;2023-11-18T09:11:05;14.25;;;9.23;;
48550;SDS011;34397;51.176;6.738;2023-11-18T09:13:41;15.13;;;8.43;;
48550;SDS011;34397;51.176;6.738;2023-11-18T09:16:15;17.52;;;9.27;;
48550;SDS011;34397;51.176;6.738;2023-11-18T09:18:47;15.02;;;9.30;;
48550;SDS011;34397;51.176;6.738;2023-11-18T09:21:20;15.77;;;8.65;;
48550;SDS011;34397;51.176;6.738;2023-11-18T09:23:55;14.77;;;9.32;;
48550;SDS011;34397;51.176;6.738;2023-11-18T09:26:27;13.70;;;8.57;;
48550;SDS011;34397;51.176;6.738;2023-11-18T09:31:32;17.40;;;9.73;;
48550;SDS011;34397;51.176;6.738;2023-11-18T09:34:04;14.27;;;9.57;;
48550;SDS011;34397;51.176;6.738;2023-11-18T09:36:38;16.98;;;9.27;;
48550;SDS011;34397;51.176;6.738;2023-11-18T09:39:09;18.35;;;9.30;;
48550;SDS011;34397;51.176;6.738;2023-11-18T09:41:59;14.02;;;9.43;;
48550;SDS011;34397;51.176;6.738;2023-11-18T09:44:32;14.55;;;8.88;;
48550;SDS011;34397;51.176;6.738;2023-11-18T09:47:08;15.38;;;9.20;;
48550;SDS011;34397;51.176;6.738;2023-11-18T09:49:41;14.02;;;8.52;;
48550;SDS011;34397;51.176;6.738;2023-11-18T09:52:17;15.50;;;8.73;;
48550;SDS011;34397;51.176;6.738;2023-11-18T09:54:55;12.00;;;8.38;;
48550;SDS011;34397;51.176;6.738;2023-11-18T09:57:35;12.15;;;7.82;;
48550;SDS011;34397;51.176;6.738;2023-11-18T10:00:12;13.02;;;7.40;;
48550;SDS011;34397;51.176;6.738;2023-11-18T10:02:51;15.10;;;8.07;;
48550;SDS011;34397;51.176;6.738;2023-11-18T10:05:26;13.48;;;7.90;;
48550;SDS011;34397;51.176;6.738;2023-11-18T10:08:01;13.15;;;7.95;;
48550;SDS011;34397;51.176;6.738;2023-11-18T10:10:35;12.85;;;8.00;;
48550;SDS011;34397;51.176;6.738;2023-11-18T10:13:07;12.63;;;7.95;;
48550;SDS011;34397;51.176;6.738;2023-11-18T10:15:51;11.27;;;7.55;;
48550;SDS011;34397;51.176;6.738;2023-11-18T10:18:23;14.15;;;8.40;;
48550;SDS011;34397;51.176;6.738;2023-11-18T10:20:58;12.30;;;7.85;;
48550;SDS011;34397;51.176;6.738;2023-11-18T10:26:04;11.90;;;7.45;;
48550;SDS011;34397;51.176;6.738;2023-11-18T10:28:37;12.70;;;7.07;;
48550;SDS011;34397;51.176;6.738;2023-11-18T10:31:09;11.55;;;7.43;;
48550;SDS011;34397;51.176;6.738;2023-11-18T10:33:50;10.80;;;6.82;;
48550;SDS011;34397;51.176;6.738;2023-11-18T10:36:22;14.95;;;7.45;;
48550;SDS011;34397;51.176;6.738;2023-11-18T10:38:56;12.85;;;7.50;;
48550;SDS011;34397;51.176;6.738;2023-11-18T10:41:30;13.38;;;7.78;;
48550;SDS011;34397;51.176;6.738;2023-11-18T10:44:06;13.23;;;8.07;;
48550;SDS011;34397;51.176;6.738;2023-11-18T10:46:50;11.73;;;7.00;;
48550;SDS011;34397;51.176;6.738;2023-11-18T10:49:23;10.93;;;6.68;;
48550;SDS011;34397;51.176;6.738;2023-11-18T10:51:55;11.05;;;6.93;;
48550;SDS011;34397;51.176;6.738;2023-11-18T10:54:29;12.35;;;6.88;;
48550;SDS011;34397;51.176;6.738;2023-11-18T10:57:02;9.27;;;5.88;;
48550;SDS011;34397;51.176;6.738;2023-11-18T10:59:39;8.02;;;5.97;;
48550;SDS011;34397;51.176;6.738;2023-11-18T11:02:30;8.95;;;5.78;;
48550;SDS011;34397;51.176;6.738;2023-11-18T11:05:05;14.82;;;6.20;;
48550;SDS011;34397;51.176;6.738;2023-11-18T11:07:37;9.07;;;5.60;;
48550;SDS011;34397;51.176;6.738;2023-11-18T11:10:12;9.73;;;6.05;;
48550;SDS011;34397;51.176;6.738;2023-11-18T11:12:48;9.32;;;5.95;;
48550;SDS011;34397;51.176;6.738;2023-11-18T11:15:23;11.63;;;6.00;;
48550;SDS011;34397;51.176;6.738;2023-11-18T11:18:04;10.55;;;5.88;;
48550;SDS011;34397;51.176;6.738;2023-11-18T11:20:41;10.07;;;5.80;;
48550;SDS011;34397;51.176;6.738;2023-11-18T11:23:21;9.25;;;5.38;;
48550;SDS011;34397;51.176;6.738;2023-11-18T11:26:06;8.07;;;5.28;;
48550;SDS011;34397;51.176;6.738;2023-11-18T11:28:50;9.50;;;5.20;;
48550;SDS011;34397;51.176;6.738;2023-11-18T11:31:30;7.68;;;5.20;;
48550;SDS011;34397;51.176;6.738;2023-11-18T11:34:09;9.00;;;5.35;;
48550;SDS011;34397;51.176;6.738;2023-11-18T11:36:50;8.80;;;5.50;;
48550;SDS011;34397;51.176;6.738;2023-11-18T11:39:23;9.85;;;5.32;;
48550;SDS011;34397;51.176;6.738;2023-11-18T11:42:01;8.27;;;4.47;;
48550;SDS011;34397;51.176;6.738;2023-11-18T11:44:39;9.70;;;5.25;;
48550;SDS011;34397;51.176;6.738;2023-11-18T11:47:12;6.95;;;4.45;;
48550;SDS011;34397;51.176;6.738;2023-11-18T11:49:47;9.07;;;5.13;;
48550;SDS011;34397;51.176;6.738;2023-11-18T11:52:31;7.60;;;4.80;;
48550;SDS011;34397;51.176;6.738;2023-11-18T11:55:09;11.07;;;5.35;;
48550;SDS011;34397;51.176;6.738;2023-11-18T11:57:51;11.27;;;5.03;;
48550;SDS011;34397;51.176;6.738;2023-11-18T12:00:24;9.15;;;5.45;;
48550;SDS011;34397;51.176;6.738;2023-11-18T12:03:04;8.10;;;4.68;;
48550;SDS011;34397;51.176;6.738;2023-11-18T12:05:47;10.40;;;4.70;;
48550;SDS011;34397;51.176;6.738;2023-11-18T12:08:21;8.15;;;4.85;;
48550;SDS011;34397;51.176;6.738;2023-11-18T12:10:54;8.43;;;5.00;;
48550;SDS011;34397;51.176;6.738;2023-11-18T12:13:28;7.90;;;5.07;;
48550;SDS011;34397;51.176;6.738;2023-11-18T12:16:04;9.38;;;5.10;;
48550;SDS011;34397;51.176;6.738;2023-11-18T12:18:40;8.55;;;4.93;;
48550;SDS011;34397;51.176;6.738;2023-11-18T12:21:14;8.48;;;5.18;;
48550;SDS011;34397;51.176;6.738;2023-11-18T12:24:30;8.20;;;4.30;;
48550;SDS011;34397;51.176;6.738;2023-11-18T12:27:03;8.82;;;4.70;;
48550;SDS011;34397;51.176;6.738;2023-11-18T12:29:42;7.40;;;4.25;;
48550;SDS011;34397;51.176;6.738;2023-11-18T12:32:15;8.70;;;4.15;;
48550;SDS011;34397;51.176;6.738;2023-11-18T12:35:31;6.38;;;4.50;;
48550;SDS011;34397;51.176;6.738;2023-11-18T12:41:04;7.63;;;4.20;;
48550;SDS011;34397;51.176;6.738;2023-11-18T12:43:46;8.65;;;4.93;;
48550;SDS011;34397;51.176;6.738;2023-11-18T12:49:21;14.50;;;5.10;;
48550;SDS011;34397;51.176;6.738;2023-11-18T12:51:54;7.03;;;4.75;;
48550;SDS011;34397;51.176;6.738;2023-11-18T12:57:00;12.50;;;5.80;;
48550;SDS011;34397;51.176;6.738;2023-11-18T12:59:32;10.85;;;6.75;;
48550;SDS011;34397;51.176;6.738;2023-11-18T13:02:08;12.50;;;6.00;;
48550;SDS011;34397;51.176;6.738;2023-11-18T13:04:43;10.30;;;5.88;;
48550;SDS011;34397;51.176;6.738;2023-11-18T13:07:17;10.40;;;5.72;;
48550;SDS011;34397;51.176;6.738;2023-11-18T13:09:51;11.27;;;5.65;;
48550;SDS011;34397;51.176;6.738;2023-11-18T13:12:24;9.02;;;5.57;;
48550;SDS011;34397;51.176;6.738;2023-11-18T13:14:57;9.82;;;5.20;;
48550;SDS011;34397;51.176;6.738;2023-11-18T13:17:32;8.55;;;4.68;;
48550;SDS011;34397;51.176;6.738;2023-11-18T13:20:11;9.75;;;4.78;;
48550;SDS011;34397;51.176;6.738;2023-11-18T13:22:44;8.52;;;4.75;;
48550;SDS011;34397;51.176;6.738;2023-11-18T13:25:16;7.75;;;4.13;;
48550;SDS011;34397;51.176;6.738;2023-11-18T13:27:48;6.70;;;4.28;;
48550;SDS011;34397;51.176;6.738;2023-11-18T13:30:21;6.82;;;4.22;;
48550;SDS011;34397;51.176;6.738;2023-11-18T13:32:55;7.68;;;4.15;;
48550;SDS011;34397;51.176;6.738;2023-11-18T13:35:27;7.18;;;4.00;;
48550;SDS011;34397;51.176;6.738;2023-11-18T13:38:01;8.63;;;4.18;;
48550;SDS011;34397;51.176;6.738;2023-11-18T13:40:44;7.55;;;4.43;;
48550;SDS011;34397;51.176;6.738;2023-11-18T13:43:16;7.85;;;3.38;;
48550;SDS011;34397;51.176;6.738;2023-11-18T13:45:52;8.05;;;3.53;;
48550;SDS011;34397;51.176;6.738;2023-11-18T13:48:25;8.68;;;3.78;;
48550;SDS011;34397;51.176;6.738;2023-11-18T13:50:58;6.15;;;3.47;;
48550;SDS011;34397;51.176;6.738;2023-11-18T13:53:31;6.63;;;3.53;;
48550;SDS011;34397;51.176;6.738;2023-11-18T13:56:03;6.78;;;3.60;;
48550;SDS011;34397;51.176;6.738;2023-11-18T13:58:36;8.68;;;3.88;;
48550;SDS011;34397;51.176;6.738;2023-11-18T14:01:10;6.63;;;2.90;;
48550;SDS011;34397;51.176;6.738;2023-11-18T14:03:44;5.55;;;3.30;;
48550;SDS011;34397;51.176;6.738;2023-11-18T14:06:17;6.40;;;2.88;;
48550;SDS011;34397;51.176;6.738;2023-11-18T14:08:53;7.22;;;3.08;;
48550;SDS011;34397;51.176;6.738;2023-11-18T14:11:25;6.38;;;2.72;;
48550;SDS011;34397;51.176;6.738;2023-11-18T14:13:57;6.88;;;2.90;;
48550;SDS011;34397;51.176;6.738;2023-11-18T14:16:29;5.13;;;2.47;;
48550;SDS011;34397;51.176;6.738;2023-11-18T14:19:03;4.75;;;2.55;;
48550;SDS011;34397;51.176;6.738;2023-11-18T14:21:35;4.85;;;2.35;;
48550;SDS011;34397;51.176;6.738;2023-11-18T14:24:07;4.57;;;2.53;;
48550;SDS011;34397;51.176;6.738;2023-11-18T14:26:40;5.25;;;2.70;;
48550;SDS011;34397;51.176;6.738;2023-11-18T14:29:12;6.43;;;2.58;;
48550;SDS011;34397;51.176;6.738;2023-11-18T14:31:44;3.95;;;2.50;;
48550;SDS011;34397;51.176;6.738;2023-11-18T14:34:17;5.30;;;2.47;;
48550;SDS011;34397;51.176;6.738;2023-11-18T14:36:49;5.03;;;2.60;;
48550;SDS011;34397;51.176;6.738;2023-11-18T14:39:21;8.23;;;2.55;;
48550;SDS011;34397;51.176;6.738;2023-11-18T14:41:53;5.10;;;2.97;;
48550;SDS011;34397;51.176;6.738;2023-11-18T14:44:25;8.07;;;3.53;;
48550;SDS011;34397;51.176;6.738;2023-11-18T14:46:57;6.63;;;2.75;;
48550;SDS011;34397;51.176;6.738;2023-11-18T14:49:31;10.63;;;3.83;;
48550;SDS011;34397;51.176;6.738;2023-11-18T14:52:03;5.30;;;2.80;;
48550;SDS011;34397;51.176;6.738;2023-11-18T14:54:37;6.70;;;2.92;;
48550;SDS011;34397;51.176;6.738;2023-11-18T14:59:42;7.35;;;2.60;;
48550;SDS011;34397;51.176;6.738;2023-11-18T15:02:14;5.75;;;2.40;;
48550;SDS011;34397;51.176;6.738;2023-11-18T15:04:47;6.43;;;2.55;;
48550;SDS011;34397;51.176;6.738;2023-11-18T15:07:20;4.93;;;2.45;;
48550;SDS011;34397;51.176;6.738;2023-11-18T15:09:52;4.70;;;2.45;;
48550;SDS011;34397;51.176;6.738;2023-11-18T15:12:24;6.93;;;3.25;;
48550;SDS011;34397;51.176;6.738;2023-11-18T15:14:56;8.13;;;3.28;;
48550;SDS011;34397;51.176;6.738;2023-11-18T15:17:29;6.80;;;2.90;;
48550;SDS011;34397;51.176;6.738;2023-11-18T15:20:03;7.95;;;3.20;;
48550;SDS011;34397;51.176;6.738;2023-11-18T15:22:37;6.47;;;3.10;;
48550;SDS011;34397;51.176;6.738;2023-11-18T15:25:09;4.75;;;2.47;;
48550;SDS011;34397;51.176;6.738;2023-11-18T15:27:42;6.57;;;3.00;;
48550;SDS011;34397;51.176;6.738;2023-11-18T15:30:16;5.63;;;3.10;;
48550;SDS011;34397;51.176;6.738;2023-11-18T15:32:48;6.60;;;2.85;;
48550;SDS011;34397;51.176;6.738;2023-11-18T15:35:22;8.65;;;2.97;;
48550;SDS011;34397;51.176;6.738;2023-11-18T15:37:55;6.07;;;2.85;;
48550;SDS011;34397;51.176;6.738;2023-11-18T15:40:26;4.50;;;3.08;;
48550;SDS011;34397;51.176;6.738;2023-11-18T15:42:58;8.55;;;3.40;;
48550;SDS011;34397;51.176;6.738;2023-11-18T15:45:30;7.75;;;3.17;;
48550;SDS011;34397;51.176;6.738;2023-11-18T15:48:04;6.47;;;3.92;;
48550;SDS011;34397;51.176;6.738;2023-11-18T15:50:38;6.47;;;3.10;;
48550;SDS011;34397;51.176;6.738;2023-11-18T15:53:11;4.50;;;2.78;;
48550;SDS011;34397;51.176;6.738;2023-11-18T15:55:44;5.38;;;3.10;;
48550;SDS011;34397;51.176;6.738;2023-11-18T15:58:17;5.70;;;2.90;;